Time;durP1;ratioP1;P1;durP2;ratioP2;P2;SDS_P1;SDS_P2;PMS_P1;PMS_P2;Temp;Humidity;BMP_temperature;BMP_pressure;BME280_temperature;BME280_humidity;BME280_pressure;Samples;Min_cycle;Max_cycle;Signal;HPM_P1;HPM_P2
2021/05/13 00:02:27;;;;;;;3.43;1.67;;;;;;;14.70;44.57;98316.58;529827;1101;115526;-62
2021/05/13 00:12:40;;;;;;;2.83;1.50;;;;;;;14.55;44.60;98311.88;530526;1101;115614;-62
2021/05/13 00:22:45;;;;;;;3.03;1.60;;;;;;;14.33;45.00;98312.38;530550;1101;115541;-63
2021/05/13 00:32:50;;;;;;;6.10;1.70;;;;;;;14.11;45.19;98307.45;516341;1097;115722;-63
2021/05/13 00:42:55;;;;;;;5.10;1.83;;;;;;;13.91;45.31;98305.95;512282;1101;115779;-63
2021/05/13 00:53:04;;;;;;;4.23;1.40;;;;;;;13.89;45.77;98300.00;512184;1097;115763;-63
2021/05/13 01:03:09;;;;;;;1.60;1.40;;;;;;;13.93;45.45;98290.78;525777;1095;117488;-62
2021/05/13 01:13:18;;;;;;;1.90;1.10;;;;;;;13.86;45.35;98285.30;520764;1101;115552;-63
2021/05/13 01:23:22;;;;;;;;;;;;;;;13.83;45.56;98280.33;529513;1101;115370;-62
2021/05/13 01:33:28;;;;;;;4.47;1.40;;;;;;;13.75;45.60;98259.98;530778;1101;103336;-63
2021/05/13 01:43:34;;;;;;;1.60;0.80;;;;;;;13.65;46.04;98259.23;530512;1101;115984;-63
2021/05/13 01:53:41;;;;;;;1.37;0.93;;;;;;;13.51;46.26;98255.30;529786;1101;116158;-63
2021/05/13 02:03:46;;;;;;;3.33;0.97;;;;;;;13.29;46.61;98245.02;530449;1101;115953;-63
2021/05/13 02:13:51;;;;;;;1.97;1.17;;;;;;;13.01;47.16;98231.05;530461;1101;115476;-63
2021/05/13 02:23:56;;;;;;;8.13;1.30;;;;;;;12.73;47.85;98231.88;529805;1101;116243;-63
2021/05/13 02:34:01;;;;;;;1.87;1.23;;;;;;;12.47;48.33;98240.44;530558;1101;116098;-63
2021/05/13 02:44:07;;;;;;;3.03;1.83;;;;;;;12.21;48.81;98226.22;529828;1101;115998;-63
2021/05/13 02:54:12;;;;;;;4.77;1.60;;;;;;;12.00;49.30;98220.16;530493;1101;116076;-63
2021/05/13 03:04:17;;;;;;;8.30;1.30;;;;;;;11.89;49.93;98221.16;530648;1101;116164;-63
2021/05/13 03:14:22;;;;;;;2.50;1.07;;;;;;;11.86;50.39;98215.34;529850;1101;115958;-63
2021/05/13 03:24:31;;;;;;;2.90;1.30;;;;;;;11.82;50.38;98209.52;529085;1101;116249;-62
2021/05/13 03:34:36;;;;;;;2.53;1.10;;;;;;;11.85;50.55;98206.60;527510;1101;116245;-64
2021/05/13 03:44:44;;;;;;;5.53;0.93;;;;;;;11.91;50.84;98213.95;529467;1101;115793;-64
2021/05/13 03:54:49;;;;;;;3.85;1.33;;;;;;;12.06;50.96;98195.11;530267;1101;115743;-64
2021/05/13 04:04:54;;;;;;;2.13;0.90;;;;;;;12.56;50.84;98191.34;530532;1101;116427;-64
2021/05/13 04:14:59;;;;;;;6.73;2.40;;;;;;;19.51;44.68;98170.27;529750;1101;115626;-62
2021/05/13 04:25:05;;;;;;;3.70;2.17;;;;;;;24.31;37.10;98167.14;530597;1101;116685;-63
2021/05/13 04:35:12;;;;;;;0.83;0.83;;;;;;;19.83;36.29;98162.74;529893;1101;116999;-63
2021/05/13 04:45:17;;;;;;;3.50;1.03;;;;;;;19.92;38.51;98158.92;530621;1101;116129;-63
2021/05/13 04:55:22;;;;;;;3.60;0.70;;;;;;;27.96;31.15;98152.34;530612;1101;116002;-63
2021/05/13 05:05:27;;;;;;;4.13;1.10;;;;;;;32.11;26.93;98132.41;529934;1101;117443;-63
2021/05/13 05:15:32;;;;;;;2.55;0.70;;;;;;;35.78;22.52;98129.78;530515;1101;116437;-68
2021/05/13 05:25:38;;;;;;;1.88;1.23;;;;;;;37.73;20.50;98132.42;525223;1101;115337;-67
2021/05/13 05:35:43;;;;;;;1.53;0.93;;;;;;;38.20;18.49;98118.27;529861;1101;116771;-66
2021/05/13 05:45:48;;;;;;;3.53;1.20;;;;;;;38.96;17.00;98110.81;530504;1101;115789;-66
2021/05/13 05:55:53;;;;;;;1.75;1.40;;;;;;;42.11;15.66;98107.44;530564;1101;116368;-61
2021/05/13 06:05:58;;;;;;;4.05;1.30;;;;;;;43.04;13.91;98108.61;529855;1101;116371;-67
2021/05/13 06:16:04;;;;;;;4.48;1.40;;;;;;;45.47;13.39;98103.06;530577;1101;115833;-69
2021/05/13 06:26:09;;;;;;;2.70;1.28;;;;;;;47.72;11.25;98096.03;529735;1101;116595;-71
2021/05/13 06:36:14;;;;;;;5.73;2.05;;;;;;;48.22;10.81;98095.58;530522;1101;115897;-67
2021/05/13 06:46:20;;;;;;;3.40;2.35;;;;;;;49.38;10.44;98081.28;530597;1101;115362;-69
2021/05/13 06:56:27;;;;;;;5.60;2.48;;;;;;;51.00;9.49;98071.70;529822;1101;116865;-68
2021/05/13 07:06:35;;;;;;;3.97;3.63;;;;;;;51.04;9.08;98065.30;530640;1101;115701;-62
2021/05/13 07:16:40;;;;;;;5.48;5.05;;;;;;;51.95;8.61;98057.74;512696;1100;20002711;-65
2021/05/13 07:26:46;;;;;;;8.13;7.38;;;;;;;52.75;7.61;98042.78;529788;1101;116161;-64
2021/05/13 07:36:51;;;;;;;7.65;7.20;;;;;;;52.87;8.16;98027.41;530565;1101;117794;-65
2021/05/13 07:46:58;;;;;;;8.50;8.20;;;;;;;52.25;7.94;98044.23;522109;1095;116346;-69
2021/05/13 07:57:07;;;;;;;3.78;2.58;;;;;;;48.32;8.11;98019.72;530523;1101;116067;-63
2021/05/13 08:07:12;;;;;;;4.85;2.05;;;;;;;37.36;12.12;98007.44;530545;1101;115258;-67
2021/05/13 08:17:17;;;;;;;3.53;2.10;;;;;;;30.57;17.22;98032.63;527270;1101;115959;-64
2021/05/13 08:27:22;;;;;;;4.20;1.70;;;;;;;27.91;20.33;98022.00;530523;1101;115871;-60
2021/05/13 08:37:28;;;;;;;10.73;2.20;;;;;;;26.83;21.85;98025.48;530505;1101;116628;-60
2021/05/13 08:47:38;;;;;;;2.80;1.83;;;;;;;25.25;23.81;98014.77;524579;1096;116049;-58
2021/05/13 08:57:43;;;;;;;2.38;2.13;;;;;;;24.90;24.50;98005.61;530396;1101;115674;-56
2021/05/13 09:07:48;;;;;;;3.65;2.00;;;;;;;24.91;25.28;98009.93;530538;1101;116884;-59
2021/05/13 09:18:01;;;;;;;3.37;1.93;;;;;;;24.46;26.11;97998.58;529820;1101;115648;-58
2021/05/13 09:28:08;;;;;;;2.33;2.13;;;;;;;23.67;26.64;98004.69;530466;1101;117072;-62
2021/05/13 09:38:14;;;;;;;5.58;2.95;;;;;;;23.44;27.31;97989.28;529718;1101;116967;-59
2021/05/13 09:48:39;;;;;;;5.03;2.60;;;;;;;23.05;28.11;97979.50;530490;1101;115904;-61
2021/05/13 09:58:44;;;;;;;4.97;1.80;;;;;;;22.60;28.28;97969.77;530607;1101;116172;-63
2021/05/13 10:08:48;;;;;;;6.90;2.37;;;;;;;22.47;28.45;97962.61;529895;1101;115608;-67
2021/05/13 10:18:58;;;;;;;2.40;1.83;;;;;;;21.88;28.56;97964.59;530568;1101;115481;-65
2021/05/13 10:29:36;;;;;;;2.07;1.60;;;;;;;21.83;29.30;97957.20;530585;1101;115569;-58
2021/05/13 10:40:21;;;;;;;3.90;2.30;;;;;;;21.59;29.46;97946.17;526204;1096;291610;-51
2021/05/13 10:50:40;;;;;;;6.10;1.93;;;;;;;21.20;30.56;97938.04;529880;1101;116105;-46
2021/05/13 11:00:45;;;;;;;3.53;2.30;;;;;;;21.01;30.18;97926.38;516213;1096;115405;-67
2021/05/13 11:10:59;;;;;;;4.60;1.60;;;;;;;20.93;30.54;97929.25;514955;1096;116211;-65
2021/05/13 11:21:05;;;;;;;3.10;1.50;;;;;;;20.68;31.34;97927.17;515575;1101;115991;-62
2021/05/13 11:31:19;;;;;;;3.10;1.70;;;;;;;20.53;30.90;97916.70;512428;1097;115703;-61
2021/05/13 11:41:25;;;;;;;3.18;1.33;;;;;;;20.82;31.41;97912.84;510843;1101;20000973;-64
2021/05/13 11:51:32;;;;;;;2.03;1.37;;;;;;;20.65;30.63;97900.90;527238;1101;116826;-62
2021/05/13 12:01:37;;;;;;;4.60;2.23;;;;;;;20.43;31.45;97901.09;530537;1101;115508;-66
2021/05/13 12:11:43;;;;;;;3.60;1.35;;;;;;;20.42;31.80;97897.63;529673;1101;117363;-60
2021/05/13 12:21:53;;;;;;;3.03;1.53;;;;;;;20.51;31.55;97882.23;530506;1101;116588;-62
2021/05/13 12:31:59;;;;;;;2.30;1.45;;;;;;;20.64;31.27;97877.92;523050;1101;116676;-61
2021/05/13 12:42:22;;;;;;;2.37;1.30;;;;;;;20.67;31.26;97869.54;521477;1101;10001357;-62
2021/05/13 12:52:26;;;;;;;2.40;1.20;;;;;;;20.57;30.23;97875.27;530449;1101;116151;-62
2021/05/13 13:02:31;;;;;;;1.67;1.17;;;;;;;20.60;30.68;97868.70;529715;1101;116654;-62
2021/05/13 13:12:36;;;;;;;1.90;1.00;;;;;;;20.70;30.52;97851.25;530565;1101;115826;-63
2021/05/13 13:22:41;;;;;;;2.80;1.33;;;;;;;20.69;30.25;97854.15;530486;1101;115917;-63
2021/05/13 13:32:48;;;;;;;2.23;1.20;;;;;;;20.65;30.07;97856.40;529808;1101;118055;-60
2021/05/13 13:42:55;;;;;;;2.83;1.13;;;;;;;20.63;29.86;97852.30;530498;1101;116618;-64
2021/05/13 13:52:59;;;;;;;2.60;1.10;;;;;;;20.64;29.29;97843.27;530546;1101;115356;-66
2021/05/13 14:03:05;;;;;;;2.77;0.90;;;;;;;20.67;29.36;97830.34;529452;1101;116331;-67
2021/05/13 14:13:10;;;;;;;1.27;1.03;;;;;;;20.72;29.46;97830.56;530567;1101;116040;-67
2021/05/13 14:23:20;;;;;;;1.90;1.10;;;;;;;20.75;29.49;97831.97;529809;1101;117060;-69
2021/05/13 14:33:25;;;;;;;2.43;1.10;;;;;;;20.56;29.52;97834.47;530562;1101;116131;-66
2021/05/13 14:43:30;;;;;;;1.43;1.07;;;;;;;20.61;29.27;97828.52;530525;1101;116569;-65
2021/05/13 14:53:35;;;;;;;2.70;1.00;;;;;;;20.61;29.48;97819.69;529845;1101;116213;-67
2021/05/13 15:03:40;;;;;;;2.97;1.23;;;;;;;20.55;29.61;97822.17;531957;1098;117148;-67
2021/05/13 15:13:45;;;;;;;3.63;1.63;;;;;;;20.59;29.08;97822.55;531905;1098;116027;-67
2021/05/13 15:23:50;;;;;;;1.10;1.00;;;;;;;20.55;29.80;97808.00;531266;1098;115698;-63
2021/05/13 15:33:55;;;;;;;2.90;0.90;;;;;;;20.51;28.90;97804.93;531936;1098;117446;-64
2021/05/13 15:44:00;;;;;;;2.27;0.87;;;;;;;20.51;28.95;97793.46;532010;1098;115398;-64
2021/05/13 15:54:06;;;;;;;2.13;1.10;;;;;;;20.49;29.42;97800.82;531939;1098;116284;-64
2021/05/13 16:04:11;;;;;;;1.70;1.00;;;;;;;20.35;29.00;97792.84;531896;1098;115881;-65
2021/05/13 16:14:16;;;;;;;4.83;1.47;;;;;;;20.29;29.43;97794.48;526880;1098;115793;-65
2021/05/13 16:24:21;;;;;;;2.10;1.03;;;;;;;20.24;29.57;97802.28;527091;1098;116336;-63
2021/05/13 16:34:26;;;;;;;4.03;0.90;;;;;;;20.18;29.53;97802.29;531971;1098;116781;-65
2021/05/13 16:44:32;;;;;;;0.70;0.60;;;;;;;20.08;29.41;97802.67;526712;1098;116636;-64
2021/05/13 16:54:37;;;;;;;1.67;0.90;;;;;;;20.54;28.55;97796.51;532023;1098;116028;-64
2021/05/13 17:04:47;;;;;;;3.37;0.93;;;;;;;20.82;27.15;97799.98;531929;1098;116832;-65
2021/05/13 17:14:52;;;;;;;3.37;1.23;;;;;;;20.17;28.04;97806.78;531215;1098;116380;-64
2021/05/13 17:24:58;;;;;;;2.03;0.75;;;;;;;20.53;28.42;97805.53;529605;1098;116597;-64
2021/05/13 17:35:04;;;;;;;0.90;0.87;;;;;;;20.65;27.68;97803.08;528870;1098;116125;-65
2021/05/13 17:45:11;;;;;;;1.70;1.30;;;;;;;19.72;28.35;97802.80;529716;1098;116200;-63
2021/05/13 17:55:16;;;;;;;2.53;1.67;;;;;;;19.66;29.21;97798.30;528922;1098;116822;-64
2021/05/13 18:05:24;;;;;;;3.00;1.53;;;;;;;19.10;30.34;97804.63;528987;1098;117239;-64
2021/05/13 18:15:29;;;;;;;3.75;2.00;;;;;;;18.45;31.44;97810.96;529611;1098;117714;-64
2021/05/13 18:25:36;;;;;;;5.57;1.83;;;;;;;17.95;32.20;97822.37;528980;1098;115984;-64
2021/05/13 18:35:41;;;;;;;5.03;1.73;;;;;;;17.58;32.75;97830.34;528891;1098;116992;-69
2021/05/13 18:45:54;;;;;;;5.12;1.30;;;;;;;17.28;33.37;97822.47;527070;1098;10001322;-66
2021/05/13 18:56:00;;;;;;;5.78;1.50;;;;;;;17.01;34.00;97827.41;520722;1092;10001380;-65
2021/05/13 19:06:06;;;;;;;7.35;4.85;;;;;;;16.65;35.62;97842.17;529095;1098;116401;-73
2021/05/13 19:16:11;;;;;;;13.40;4.57;;;;;;;16.22;37.11;97853.31;523960;1098;116513;-70
2021/05/13 19:26:17;;;;;;;13.63;9.40;;;;;;;15.92;37.75;97850.54;528798;1098;116482;-70
2021/05/13 19:36:24;;;;;;;6.33;3.30;;;;;;;15.67;38.41;97857.77;529610;1098;116455;-71
2021/05/13 19:46:29;;;;;;;5.67;3.07;;;;;;;15.29;40.31;97852.33;528850;1098;116184;-71
2021/05/13 19:56:35;;;;;;;11.83;4.77;;;;;;;14.95;42.37;97851.63;529067;1098;116544;-71
2021/05/13 20:06:44;;;;;;;8.00;3.97;;;;;;;14.74;42.24;97857.44;526548;1098;117975;-69
2021/05/13 20:16:50;;;;;;;5.10;2.80;;;;;;;14.50;42.45;97845.88;528947;1098;117529;-70
2021/05/13 20:26:59;;;;;;;5.13;3.17;;;;;;;14.39;42.61;97842.58;528967;1098;116951;-70
2021/05/13 20:37:04;;;;;;;6.20;3.63;;;;;;;14.44;42.80;97836.80;528581;1098;116020;-70
2021/05/13 20:47:12;;;;;;;6.50;3.83;;;;;;;14.41;43.03;97831.87;529088;1098;116545;-68
2021/05/13 21:07:44;;;;;;;23.60;3.93;;;;;;;14.01;46.08;97824.59;525854;1098;116405;-70
2021/05/13 21:28:14;;;;;;;11.73;3.47;;;;;;;13.31;48.99;97821.30;527700;1098;116526;-69
2021/05/13 21:38:19;;;;;;;7.17;3.23;;;;;;;13.01;49.99;97825.30;528940;1098;116877;-69
2021/05/13 21:48:27;;;;;;;21.17;6.23;;;;;;;12.73;49.81;97849.17;519995;1097;117034;-70
2021/05/13 21:58:33;;;;;;;9.13;3.27;;;;;;;13.10;48.12;97837.53;526330;1093;116385;-70
2021/05/13 22:08:38;;;;;;;8.33;3.40;;;;;;;13.34;47.08;97837.78;528987;1098;115973;-71
2021/05/13 22:18:45;;;;;;;5.80;3.80;;;;;;;13.31;47.21;97842.39;529721;1098;116252;-70
2021/05/13 22:28:52;;;;;;;5.33;4.17;;;;;;;13.27;47.43;97834.95;529019;1098;169879;-70
2021/05/13 22:38:58;;;;;;;7.77;3.60;;;;;;;13.26;48.21;97841.22;526483;1098;116095;-70
2021/05/13 22:49:13;;;;;;;4.93;4.03;;;;;;;13.14;48.97;97840.66;519365;1098;116787;-70
2021/05/13 22:59:18;;;;;;;5.57;4.00;;;;;;;12.90;49.34;97831.65;529048;1098;116876;-70
2021/05/13 23:09:25;;;;;;;9.13;5.67;;;;;;;12.70;50.55;97837.16;528717;1098;116866;-67
2021/05/13 23:19:30;;;;;;;7.73;4.20;;;;;;;12.53;51.10;97841.49;528884;1098;117145;-67
2021/05/13 23:29:35;;;;;;;9.90;5.03;;;;;;;12.35;51.98;97830.16;528978;1098;116494;-66
2021/05/13 23:39:40;;;;;;;5.70;4.30;;;;;;;12.24;53.15;97836.50;529700;1098;116650;-67
2021/05/13 23:49:45;;;;;;;5.53;4.00;;;;;;;12.12;54.04;97842.00;528975;1097;117059;-66
2021/05/13 23:59:50;;;;;;;5.53;3.97;;;;;;;11.97;54.35;97839.04;527826;1098;116409;-67
